»·PEaware :: N103QS KSLC-KASE

N103QS :: KSLC-KASE

FLIGHT INFORMATION

Flight Status: Arrived
Operator: Privately registered:
United States
More flights under this callsign
Pilot: Patricio R. (14780)
Aircraft: BOEING 737-800
(B738)
More flights by this aircraft type
Origin: KSLC Salt Lake City Intl
United States
Destination: KASE Aspen-Pitkin Co/Sardy
United States
More flights between these airports :: More routes between these airports
Route: NSIGN5 EKR TRUEL DBL
File this flight plan on PilotEdge
Remarks:
Altitude:
(Current/Filed)
35,000ft
Speed:
(Current/Filed)
430kts
Departed: 05-Jan-18 04:17 PM
Arrived: 05-Jan-18 05:06 PM
Distance/Time
Traveled:
253nm/0:49
Distance/Time
To Go:
Arrived

Flight Plot

Page will automatically refresh every two minutes.

Flight plan parsing failed; only flown route is shown


Map Options




Map Legend


Flown Route
Filed Route
Departure Airport
Arrival Airport
Navaid (VOR, NDB)
Fix

Horizontal Profiles

Position Reports

Time Latitude Longitude Heading Altitude Ground
Speed
05-Jan-18 15:36 40.778314 -111.977272 259 4204ft 0kts
05-Jan-18 15:37 40.778314 -111.977272 259 4204ft 0kts
05-Jan-18 15:38 40.778314 -111.977272 259 4204ft 0kts
05-Jan-18 15:39 40.778314 -111.977272 259 4204ft 0kts
05-Jan-18 15:40 40.778314 -111.977272 259 4204ft 0kts
05-Jan-18 15:41 40.778314 -111.977272 259 4204ft 0kts
05-Jan-18 15:42 40.778314 -111.977272 259 4204ft 0kts
05-Jan-18 15:43 40.778314 -111.977272 259 4204ft 0kts
05-Jan-18 15:44 40.778314 -111.977272 259 4204ft 0kts
05-Jan-18 15:45 40.778314 -111.977272 259 4204ft 0kts
05-Jan-18 15:46 40.778314 -111.977272 259 4204ft 0kts
05-Jan-18 15:47 40.778314 -111.977272 259 4204ft 0kts
05-Jan-18 15:48 40.778314 -111.977272 259 4204ft 0kts
05-Jan-18 15:49 40.778314 -111.977272 259 4204ft 0kts
05-Jan-18 15:50 40.778314 -111.977272 259 4204ft 0kts
05-Jan-18 15:51 40.778314 -111.977272 259 4204ft 0kts
05-Jan-18 15:52 40.778314 -111.977272 259 4204ft 0kts
05-Jan-18 15:53 40.778314 -111.977279 259 4204ft 1kts
05-Jan-18 15:54 40.778923 -111.977583 57 4204ft 4kts
05-Jan-18 15:55 40.778659 -111.975826 154 4204ft 5kts
05-Jan-18 15:56 40.778408 -111.975747 174 4204ft 0kts
05-Jan-18 15:57 40.778408 -111.975747 174 4204ft 0kts
05-Jan-18 15:58 40.778408 -111.975747 174 4204ft 0kts
05-Jan-18 15:59 40.777368 -111.975623 174 4204ft 11kts
05-Jan-18 16:00 40.774610 -111.974775 128 4204ft 0kts
05-Jan-18 16:01 40.774610 -111.974775 128 4204ft 0kts
05-Jan-18 16:02 40.774610 -111.974775 128 4204ft 0kts
05-Jan-18 16:03 40.774610 -111.974775 128 4204ft 0kts
05-Jan-18 16:08 40.774919 -111.976872 262 4204ft 0kts
05-Jan-18 16:09 40.774919 -111.976872 262 4204ft 0kts
05-Jan-18 16:10 40.774919 -111.976872 262 4204ft 0kts
05-Jan-18 16:11 40.774919 -111.976872 262 4204ft 0kts
05-Jan-18 16:12 40.774919 -111.976872 262 4204ft 0kts
05-Jan-18 16:13 40.774949 -111.976571 262 4204ft 2kts
05-Jan-18 16:14 40.775021 -111.975848 262 4204ft 1kts
05-Jan-18 16:15 40.775446 -111.975441 167 4204ft 1kts
05-Jan-18 16:16 40.775521 -111.975473 162 4204ft 0kts
05-Jan-18 16:17 40.775521 -111.975473 162 4204ft 0kts
05-Jan-18 16:18 40.775521 -111.975473 162 4204ft 0kts
05-Jan-18 16:19 40.775521 -111.975473 162 4204ft 0kts
05-Jan-18 16:20 40.774801 -111.975084 145 4204ft 2kts
05-Jan-18 16:21 40.774519 -111.974162 78 4204ft 0kts
05-Jan-18 16:22 40.775304 -111.973203 354 4204ft 24kts
05-Jan-18 16:23 40.811246 -111.977577 355 5200ft 179kts
05-Jan-18 16:24 40.857721 -111.983521 353 6998ft 201kts
05-Jan-18 16:25 40.920092 -111.992144 352 8974ft 238kts
05-Jan-18 16:26 40.994179 -112.002500 351 11131ft 288kts
05-Jan-18 16:27 41.075090 -112.007634 14 14102ft 306kts
05-Jan-18 16:28 41.135231 -111.933956 62 16601ft 336kts
05-Jan-18 16:29 41.130231 -111.810044 120 18997ft 358kts
05-Jan-18 16:30 41.051012 -111.735627 160 21342ft 360kts
05-Jan-18 16:31 40.957916 -111.681992 163 23308ft 376kts
05-Jan-18 16:32 40.865980 -111.626062 146 24709ft 394kts
05-Jan-18 16:33 40.813871 -111.493766 106 26547ft 425kts
05-Jan-18 16:34 40.780595 -111.343594 108 28615ft 429kts
05-Jan-18 16:35 40.750686 -111.214986 108 30053ft 433kts
05-Jan-18 16:36 40.714785 -111.061432 107 31127ft 446kts
05-Jan-18 16:37 40.677914 -110.903044 106 32436ft 456kts
05-Jan-18 16:38 40.640875 -110.743057 106 34041ft 457kts
05-Jan-18 16:39 40.604328 -110.584191 105 35309ft 459kts
05-Jan-18 16:40 40.566680 -110.419553 106 35343ft 485kts
05-Jan-18 16:41 40.528554 -110.246440 104 35334ft 511kts
05-Jan-18 16:42 40.491702 -110.062933 104 35324ft 522kts
05-Jan-18 16:43 40.455145 -109.885954 104 35333ft 522kts
05-Jan-18 16:44 40.417451 -109.702554 104 35331ft 522kts
05-Jan-18 16:45 40.380072 -109.519196 103 35335ft 521kts
05-Jan-18 16:46 40.344074 -109.341253 104 35102ft 523kts
05-Jan-18 16:47 40.307763 -109.160016 103 34109ft 522kts
05-Jan-18 16:48 40.271444 -108.977698 102 32616ft 509kts
05-Jan-18 16:49 40.236628 -108.801419 102 31134ft 495kts
05-Jan-18 16:50 40.202943 -108.629660 103 29666ft 482kts
05-Jan-18 16:51 40.172895 -108.475337 103 28325ft 471kts
05-Jan-18 16:52 40.144804 -108.330068 104 26967ft 441kts
05-Jan-18 16:53 40.118938 -108.195132 104 25624ft 415kts
05-Jan-18 16:54 40.092531 -108.056886 104 24487ft 410kts
05-Jan-18 16:55 40.061312 -107.916734 124 23285ft 395kts
05-Jan-18 16:56 39.995467 -107.805671 132 22130ft 383kts
05-Jan-18 16:57 39.930550 -107.698945 131 20977ft 366kts
05-Jan-18 16:58 39.872281 -107.602971 131 20015ft 350kts
05-Jan-18 16:59 39.812960 -107.505116 131 19047ft 343kts
05-Jan-18 17:00 39.755441 -107.410035 131 18135ft 320kts
05-Jan-18 17:01 39.706584 -107.329161 132 17332ft 290kts
05-Jan-18 17:02 39.658719 -107.252056 147 16999ft 272kts
05-Jan-18 17:03 39.590323 -107.220656 169 16164ft 258kts
05-Jan-18 17:04 39.539800 -107.160650 119 14989ft 265kts
05-Jan-18 17:05 39.517926 -107.072295 125 13999ft 254kts
05-Jan-18 17:06 39.478480 -107.000502 129 13990ft 230kts
05-Jan-18 17:07 39.423796 -106.964955 163 13388ft 215kts
05-Jan-18 17:08 39.372667 -106.940316 164 12887ft 186kts
05-Jan-18 17:09 39.326019 -106.917972 163 11655ft 167kts
05-Jan-18 17:10 39.280033 -106.896104 162 9436ft 190kts
05-Jan-18 17:11 39.232372 -106.873260 161 7694ft 169kts
05-Jan-18 17:12 39.220385 -106.867346 134 7771ft 3kts
05-Jan-18 17:13 39.220339 -106.865615 148 7769ft 0kts
05-Jan-18 17:14 39.219945 -106.865404 159 7773ft 0kts
05-Jan-18 17:15 39.219846 -106.865354 158 7774ft 0kts

Navigation Log

Ident Type
Flight plan parsing failed, navigation log unavailable